createdAt,value
2019-04-04T00:00:35.093Z,7.98
2019-04-04T00:01:35.120Z,7.99
2019-04-04T00:02:35.149Z,7.96
2019-04-04T00:03:35.173Z,7.99
2019-04-04T00:04:35.194Z,7.96
2019-04-04T00:05:35.219Z,7.98
2019-04-04T00:06:35.243Z,7.96
2019-04-04T00:07:35.265Z,7.91
2019-04-04T00:08:35.291Z,7.91
2019-04-04T00:09:35.315Z,7.82
2019-04-04T00:10:35.343Z,7.89
2019-04-04T00:11:36.919Z,7.86
2019-04-04T00:12:37.010Z,7.92
2019-04-04T00:13:35.412Z,7.88
2019-04-04T00:14:35.434Z,7.83
2019-04-04T00:15:35.460Z,7.83
2019-04-04T00:16:35.482Z,7.92
2019-04-04T00:17:35.507Z,7.86
2019-04-04T00:18:35.531Z,7.86
2019-04-04T00:19:35.576Z,7.88
2019-04-04T00:20:35.581Z,7.85
2019-04-04T00:21:35.605Z,7.96
2019-04-04T00:22:35.878Z,7.93
2019-04-04T00:23:37.676Z,7.95
2019-04-04T00:24:35.676Z,7.93
2019-04-04T00:25:35.705Z,7.96
2019-04-04T00:26:35.728Z,7.93
2019-04-04T00:27:35.748Z,7.98
2019-04-04T00:28:35.776Z,7.93
2019-04-04T00:29:35.802Z,7.96
2019-04-04T00:30:35.822Z,8.06
2019-04-04T00:31:35.852Z,7.98
2019-04-04T00:32:35.872Z,7.96
2019-04-04T00:33:35.896Z,7.95
2019-04-04T00:34:35.921Z,7.95
2019-04-04T00:35:35.947Z,7.85
2019-04-04T00:36:35.967Z,7.89
2019-04-04T00:37:36.525Z,7.86
2019-04-04T00:38:38.078Z,7.88
2019-04-04T00:40:36.068Z,7.85
2019-04-04T00:41:36.097Z,7.83
2019-04-04T00:42:36.112Z,7.88
2019-04-04T00:43:36.140Z,7.77
2019-04-04T00:44:36.167Z,7.83
2019-04-04T00:45:36.187Z,7.92
2019-04-04T00:46:36.216Z,7.86
2019-04-04T00:47:36.236Z,7.78
2019-04-04T00:48:36.257Z,7.92
2019-04-04T00:49:36.290Z,7.88
2019-04-04T00:50:36.779Z,7.86
2019-04-04T00:51:38.811Z,7.75
2019-04-04T00:52:36.355Z,7.78
2019-04-04T00:53:36.379Z,7.77
2019-04-04T00:54:36.408Z,7.71
2019-04-04T00:55:36.425Z,7.71
2019-04-04T00:56:36.450Z,7.74
2019-04-04T00:57:39.502Z,7.73
2019-04-04T00:58:36.499Z,7.71
2019-04-04T00:59:36.521Z,7.73
2019-04-04T01:00:36.547Z,7.68
2019-04-04T01:01:36.570Z,7.54
2019-04-04T01:02:36.599Z,7.54
2019-04-04T01:03:36.615Z,7.56
2019-04-04T01:04:36.655Z,7.55
2019-04-04T01:05:36.668Z,7.64
2019-04-04T01:06:36.690Z,7.59
2019-04-04T01:07:36.720Z,7.59
2019-04-04T01:08:38.928Z,7.63
2019-04-04T01:09:36.765Z,7.71
2019-04-04T01:10:36.787Z,7.67
2019-04-04T01:11:36.817Z,7.61
2019-04-04T01:12:36.837Z,7.59
2019-04-04T01:13:36.861Z,7.56
2019-04-04T01:14:36.884Z,7.59
2019-04-04T01:15:36.909Z,7.56
2019-04-04T01:16:36.940Z,7.63
2019-04-04T01:17:36.958Z,7.70
2019-04-04T01:18:37.604Z,7.58
2019-04-04T01:19:37.013Z,7.63
2019-04-04T01:20:37.032Z,7.70
2019-04-04T01:21:37.052Z,7.63
2019-04-04T01:22:37.080Z,7.64
2019-04-04T01:23:37.101Z,7.70
2019-04-04T01:24:37.125Z,7.55
2019-04-04T01:25:37.155Z,7.64
2019-04-04T01:26:37.174Z,7.70
2019-04-04T01:27:37.672Z,7.68
2019-04-04T01:28:39.055Z,7.64
2019-04-04T01:29:37.256Z,7.61
2019-04-04T01:30:37.271Z,7.63
2019-04-04T01:31:37.295Z,7.64
2019-04-04T01:32:37.322Z,7.56
2019-04-04T01:33:37.344Z,7.61
2019-04-04T01:34:37.374Z,7.56
2019-04-04T01:35:37.401Z,7.59
2019-04-04T01:36:37.418Z,7.51
2019-04-04T01:37:37.440Z,7.51
2019-04-04T01:38:37.466Z,7.59
2019-04-04T01:39:37.493Z,7.49
2019-04-04T01:40:37.523Z,7.64
2019-04-04T01:41:37.540Z,7.58
2019-04-04T01:42:38.784Z,7.49
2019-04-04T01:43:38.030Z,7.45
2019-04-04T01:44:37.614Z,7.48
2019-04-04T01:45:37.634Z,7.47
2019-04-04T01:46:37.661Z,7.49
2019-04-04T01:47:37.684Z,7.58
2019-04-04T01:48:37.711Z,7.59
2019-04-04T01:49:37.732Z,7.63
2019-04-04T01:50:37.758Z,7.51
2019-04-04T01:51:37.783Z,7.56
2019-04-04T01:52:37.805Z,7.49
2019-04-04T01:53:37.829Z,7.56
2019-04-04T01:54:37.851Z,7.51
2019-04-04T01:55:37.878Z,7.45
2019-04-04T01:56:37.909Z,7.40
2019-04-04T01:57:38.929Z,7.34
2019-04-04T01:58:40.950Z,7.47
2019-04-04T01:59:37.978Z,7.45
2019-04-04T02:00:38.000Z,7.41
2019-04-04T02:01:38.022Z,7.44
2019-04-04T02:02:38.046Z,7.45
2019-04-04T02:03:38.073Z,7.34
2019-04-04T02:04:38.097Z,7.41
2019-04-04T02:05:38.126Z,7.30
2019-04-04T02:06:38.147Z,7.47
2019-04-04T02:07:38.172Z,7.30
2019-04-04T02:08:38.199Z,7.34
2019-04-04T02:09:38.227Z,7.34
2019-04-04T02:10:38.240Z,7.30
2019-04-04T02:11:38.261Z,7.23
2019-04-04T02:12:39.226Z,7.30
2019-04-04T02:13:40.545Z,7.36
2019-04-04T02:14:38.338Z,7.39
2019-04-04T02:15:38.357Z,7.29
2019-04-04T02:16:38.398Z,7.27
2019-04-04T02:17:38.411Z,7.27
2019-04-04T02:18:38.432Z,7.27
2019-04-04T02:19:38.454Z,7.36
2019-04-04T02:20:38.479Z,7.33
2019-04-04T02:21:41.128Z,7.29
2019-04-04T02:22:38.525Z,7.33
2019-04-04T02:23:38.568Z,7.29
2019-04-04T02:24:38.574Z,7.34
2019-04-04T02:25:38.619Z,7.27
2019-04-04T02:26:38.621Z,7.23
2019-04-04T02:27:38.651Z,7.31
2019-04-04T02:28:40.037Z,7.21
2019-04-04T02:29:39.888Z,7.21
2019-04-04T02:30:38.722Z,7.26
2019-04-04T02:31:38.744Z,7.21
2019-04-04T02:32:38.772Z,7.22
2019-04-04T02:33:38.828Z,7.18
2019-04-04T02:34:38.817Z,7.13
2019-04-04T02:35:42.732Z,7.21
2019-04-04T02:36:38.864Z,7.19
2019-04-04T02:37:38.903Z,7.15
2019-04-04T02:38:38.912Z,7.13
2019-04-04T02:39:38.937Z,7.13
2019-04-04T02:40:41.902Z,7.05
2019-04-04T02:41:38.992Z,7.12
2019-04-04T02:42:39.016Z,7.03
2019-04-04T02:43:39.033Z,7.08
2019-04-04T02:44:39.063Z,7.03
2019-04-04T02:45:39.131Z,6.98
2019-04-04T02:46:39.114Z,7.00
2019-04-04T02:47:39.139Z,7.05
2019-04-04T02:48:39.163Z,7.03
2019-04-04T02:49:39.176Z,7.03
2019-04-04T02:50:39.201Z,7.03
2019-04-04T02:51:41.226Z,6.95
2019-04-04T02:52:39.247Z,7.03
2019-04-04T02:53:39.278Z,7.01
2019-04-04T02:54:39.304Z,7.03
2019-04-04T02:55:39.322Z,7.00
2019-04-04T02:56:39.345Z,7.04
2019-04-04T02:57:42.324Z,6.94
2019-04-04T02:58:39.394Z,6.90
2019-04-04T02:59:39.418Z,6.94
2019-04-04T03:00:39.439Z,6.94
2019-04-04T03:01:39.463Z,6.94
2019-04-04T03:02:39.489Z,6.90
2019-04-04T03:03:42.100Z,6.94
2019-04-04T03:04:39.541Z,6.97
2019-04-04T03:05:39.562Z,6.94
2019-04-04T03:06:39.677Z,6.93
2019-04-04T03:07:39.612Z,6.97
2019-04-04T03:08:39.632Z,6.90
2019-04-04T03:09:42.316Z,6.93
2019-04-04T03:10:39.686Z,6.94
2019-04-04T03:11:39.704Z,6.97
2019-04-04T03:12:39.727Z,6.88
2019-04-04T03:13:39.749Z,6.95
2019-04-04T03:14:39.781Z,6.95
2019-04-04T03:15:41.584Z,6.85
2019-04-04T03:16:39.821Z,6.86
2019-04-04T03:17:39.845Z,6.83
2019-04-04T03:18:39.874Z,6.86
2019-04-04T03:19:40.714Z,6.85
2019-04-04T03:20:39.922Z,6.83
2019-04-04T03:21:39.947Z,6.83
2019-04-04T03:22:39.967Z,6.83
2019-04-04T03:23:39.990Z,6.83
2019-04-04T03:24:44.480Z,6.83
2019-04-04T03:25:40.038Z,6.94
2019-04-04T03:26:40.075Z,6.86
2019-04-04T03:27:40.084Z,6.85
2019-04-04T03:28:40.107Z,6.73
2019-04-04T03:29:40.133Z,6.73
2019-04-04T03:30:40.156Z,6.72
2019-04-04T03:31:40.203Z,6.83
2019-04-04T03:32:40.209Z,6.70
2019-04-04T03:33:40.235Z,6.78
2019-04-04T03:34:47.712Z,6.75
2019-04-04T03:35:40.281Z,6.76
2019-04-04T03:36:40.300Z,6.76
2019-04-04T03:37:41.722Z,6.58
2019-04-04T03:38:40.351Z,6.75
2019-04-04T03:39:40.372Z,6.62
2019-04-04T03:40:42.013Z,6.65
2019-04-04T03:41:40.423Z,6.61
2019-04-04T03:42:43.878Z,6.60
2019-04-04T03:43:40.471Z,6.60
2019-04-04T03:44:40.492Z,6.61
2019-04-04T03:45:40.515Z,6.60
2019-04-04T03:46:40.542Z,6.60
2019-04-04T03:47:43.257Z,6.62
2019-04-04T03:48:40.594Z,6.58
2019-04-04T03:49:40.611Z,6.58
2019-04-04T03:50:40.635Z,6.64
2019-04-04T03:51:40.657Z,6.72
2019-04-04T03:52:43.570Z,6.67
2019-04-04T03:53:40.703Z,6.58
2019-04-04T03:54:40.728Z,6.78
2019-04-04T03:55:40.752Z,6.78
2019-04-04T03:56:40.775Z,6.68
2019-04-04T03:57:40.800Z,6.78
2019-04-04T03:58:40.824Z,6.80
2019-04-04T03:59:40.848Z,6.73
2019-04-04T04:00:40.870Z,6.83
2019-04-04T04:01:45.446Z,6.68
2019-04-04T04:02:40.926Z,6.67
2019-04-04T04:03:40.940Z,6.80
2019-04-04T04:04:40.979Z,6.73
2019-04-04T04:05:41.143Z,6.72
2019-04-04T04:06:42.130Z,6.70
2019-04-04T04:07:41.036Z,6.73
2019-04-04T04:08:41.067Z,6.75
2019-04-04T04:09:41.086Z,6.75
2019-04-04T04:11:41.154Z,6.55
2019-04-04T04:12:43.153Z,6.51
2019-04-04T04:13:41.191Z,6.58
2019-04-04T04:14:41.204Z,6.58
2019-04-04T04:15:41.275Z,6.52
2019-04-04T04:16:41.249Z,6.42
2019-04-04T04:17:45.025Z,6.44
2019-04-04T04:18:41.301Z,6.37
2019-04-04T04:19:41.324Z,6.37
2019-04-04T04:20:41.357Z,6.44
2019-04-04T04:21:43.400Z,6.39
2019-04-04T04:22:41.398Z,6.34
2019-04-04T04:23:41.419Z,6.37
2019-04-04T04:24:41.444Z,6.43
2019-04-04T04:25:41.465Z,6.49
2019-04-04T04:26:42.222Z,6.44
2019-04-04T04:27:41.520Z,6.40
2019-04-04T04:28:41.546Z,6.51
2019-04-04T04:29:41.564Z,6.37
2019-04-04T04:30:41.597Z,6.44
2019-04-04T04:31:41.613Z,6.43
2019-04-04T04:32:41.636Z,6.40
2019-04-04T04:33:41.663Z,6.44
2019-04-04T04:34:41.679Z,6.46
2019-04-04T04:35:42.387Z,6.54
2019-04-04T04:36:41.729Z,6.54
2019-04-04T04:37:41.756Z,6.49
2019-04-04T04:38:41.773Z,6.46
2019-04-04T04:39:41.797Z,6.49
2019-04-04T04:40:41.821Z,6.47
2019-04-04T04:41:41.898Z,6.47
2019-04-04T04:42:41.872Z,6.42
2019-04-04T04:43:41.902Z,6.40
2019-04-04T04:44:41.917Z,6.54
2019-04-04T04:45:44.294Z,6.52
2019-04-04T04:46:41.970Z,6.54
2019-04-04T04:47:41.991Z,6.57
2019-04-04T04:48:42.022Z,6.47
2019-04-04T04:49:42.044Z,6.46
2019-04-04T04:50:42.062Z,6.54
2019-04-04T04:51:44.152Z,6.49
2019-04-04T04:52:42.106Z,6.49
2019-04-04T04:53:42.134Z,6.52
2019-04-04T04:54:42.154Z,6.47
2019-04-04T04:55:42.180Z,6.55
2019-04-04T04:56:42.213Z,6.46
2019-04-04T04:57:42.225Z,6.46
2019-04-04T04:58:42.702Z,6.55
2019-04-04T04:59:44.331Z,6.44
2019-04-04T05:00:42.297Z,6.43
2019-04-04T05:01:42.324Z,6.43
2019-04-04T05:02:42.345Z,6.44
2019-04-04T05:03:42.367Z,6.47
2019-04-04T05:04:42.395Z,6.37
2019-04-04T05:05:42.419Z,6.44
2019-04-04T05:06:42.444Z,6.42
2019-04-04T05:07:42.472Z,6.44
2019-04-04T05:08:42.491Z,6.54
2019-04-04T05:09:43.067Z,6.54
2019-04-04T05:10:45.657Z,6.49
2019-04-04T05:11:42.560Z,6.57
2019-04-04T05:12:42.588Z,6.55
2019-04-04T05:13:42.609Z,6.62
2019-04-04T05:14:42.634Z,6.68
2019-04-04T05:15:42.655Z,6.60
2019-04-04T05:16:42.680Z,6.62
2019-04-04T05:17:42.703Z,6.65
2019-04-04T05:18:42.729Z,6.72
2019-04-04T05:19:45.064Z,6.65
2019-04-04T05:20:42.777Z,6.61
2019-04-04T05:21:42.805Z,6.76
2019-04-04T05:22:42.823Z,6.70
2019-04-04T05:23:42.848Z,6.79
2019-04-04T05:24:42.873Z,6.85
2019-04-04T05:25:53.355Z,6.79
2019-04-04T05:26:42.927Z,6.73
2019-04-04T05:27:42.945Z,6.78
2019-04-04T05:28:42.972Z,6.82
2019-04-04T05:29:44.985Z,6.83
2019-04-04T05:30:43.034Z,6.83
2019-04-04T05:31:43.037Z,6.88
2019-04-04T05:32:43.069Z,6.95
2019-04-04T05:33:43.098Z,6.91
2019-04-04T05:34:43.121Z,6.91
2019-04-04T05:35:43.155Z,6.83
2019-04-04T05:36:43.179Z,7.00
2019-04-04T05:37:43.183Z,7.01
2019-04-04T05:38:46.889Z,7.01
2019-04-04T05:39:43.229Z,6.90
2019-04-04T05:40:43.268Z,7.03
2019-04-04T05:41:43.292Z,7.00
2019-04-04T05:42:43.301Z,7.01
2019-04-04T05:43:43.327Z,7.08
2019-04-04T05:44:43.371Z,6.98
2019-04-04T05:45:45.296Z,7.04
2019-04-04T05:46:43.400Z,7.08
2019-04-04T05:47:43.501Z,7.13
2019-04-04T05:48:43.449Z,7.13
2019-04-04T05:49:43.470Z,7.09
2019-04-04T05:50:44.296Z,7.21
2019-04-04T05:51:43.525Z,7.18
2019-04-04T05:52:43.558Z,7.18
2019-04-04T05:53:43.589Z,7.21
2019-04-04T05:54:43.597Z,7.26
2019-04-04T05:55:43.634Z,7.18
2019-04-04T05:56:44.711Z,7.16
2019-04-04T05:57:43.673Z,7.18
2019-04-04T05:58:43.687Z,7.15
2019-04-04T05:59:43.727Z,7.30
2019-04-04T06:00:43.742Z,7.39
2019-04-04T06:01:43.757Z,7.30
2019-04-04T06:02:43.967Z,7.29
2019-04-04T06:03:46.996Z,7.41
2019-04-04T06:04:43.835Z,7.33
2019-04-04T06:05:43.857Z,7.31
2019-04-04T06:06:43.887Z,7.34
2019-04-04T06:07:43.904Z,7.33
2019-04-04T06:08:43.932Z,7.31
2019-04-04T06:09:46.097Z,7.31
2019-04-04T06:10:43.984Z,7.34
2019-04-04T06:11:43.997Z,7.29
2019-04-04T06:12:44.026Z,7.22
2019-04-04T06:13:44.048Z,7.19
2019-04-04T06:14:46.069Z,7.22
2019-04-04T06:15:44.097Z,7.36
2019-04-04T06:16:44.121Z,7.29
2019-04-04T06:17:44.153Z,7.27
2019-04-04T06:18:44.170Z,7.34
2019-04-04T06:19:44.600Z,7.40
2019-04-04T06:20:44.226Z,7.40
2019-04-04T06:21:44.241Z,7.58
2019-04-04T06:22:44.266Z,7.55
2019-04-04T06:23:44.291Z,7.36
2019-04-04T06:24:44.315Z,7.44
2019-04-04T06:25:44.346Z,7.41
2019-04-04T06:26:44.362Z,7.47
2019-04-04T06:27:44.385Z,7.47
2019-04-04T06:28:45.052Z,7.59
2019-04-04T06:29:47.649Z,7.56
2019-04-04T06:30:44.467Z,7.68
2019-04-04T06:31:44.481Z,7.59
2019-04-04T06:32:44.506Z,7.70
2019-04-04T06:33:44.533Z,7.71
2019-04-04T06:34:44.873Z,7.78
2019-04-04T06:35:47.132Z,7.86
2019-04-04T06:36:44.603Z,7.74
2019-04-04T06:37:46.203Z,7.67
2019-04-04T06:38:44.654Z,7.68
2019-04-04T06:39:44.678Z,7.70
2019-04-04T06:40:44.699Z,7.80
2019-04-04T06:41:44.726Z,7.82
2019-04-04T06:42:44.758Z,7.70
2019-04-04T06:43:44.775Z,7.74
2019-04-04T06:44:44.796Z,7.71
2019-04-04T06:45:46.548Z,7.67
2019-04-04T06:46:44.846Z,7.71
2019-04-04T06:47:44.879Z,7.68
2019-04-04T06:48:44.897Z,7.70
2019-04-04T06:49:45.921Z,7.75
2019-04-04T06:50:44.943Z,7.91
2019-04-04T06:51:46.514Z,7.96
2019-04-04T06:52:45.000Z,7.82
2019-04-04T06:53:46.837Z,7.92
2019-04-04T06:54:45.041Z,7.85
2019-04-04T06:55:45.067Z,7.88
2019-04-04T06:56:45.088Z,7.78
2019-04-04T06:57:47.544Z,7.80
2019-04-04T06:58:45.141Z,7.71
2019-04-04T06:59:45.165Z,7.67
2019-04-04T07:00:48.434Z,7.82
2019-04-04T07:01:45.211Z,7.88
2019-04-04T07:02:47.358Z,7.80
2019-04-04T07:03:45.262Z,7.74
2019-04-04T07:04:45.283Z,7.77
2019-04-04T07:05:45.315Z,7.75
2019-04-04T07:06:45.336Z,7.71
2019-04-04T07:07:45.357Z,7.67
2019-04-04T07:08:46.780Z,7.68
2019-04-04T07:09:45.406Z,7.54
2019-04-04T07:10:57.121Z,7.49
2019-04-04T07:11:45.460Z,7.58
2019-04-04T07:12:45.481Z,7.45
2019-04-04T07:13:45.512Z,7.44
2019-04-04T07:14:49.307Z,7.52
2019-04-04T07:15:46.984Z,7.49
2019-04-04T07:16:45.612Z,7.44
2019-04-04T07:17:45.633Z,7.52
2019-04-04T07:18:45.627Z,7.31
2019-04-04T07:19:46.260Z,7.27
2019-04-04T07:20:47.891Z,7.30
2019-04-04T07:21:45.698Z,7.36
2019-04-04T07:22:45.722Z,7.37
2019-04-04T07:23:45.745Z,7.39
2019-04-04T07:24:45.775Z,7.34
2019-04-04T07:25:45.799Z,7.44
2019-04-04T07:26:46.119Z,7.39
2019-04-04T07:27:47.405Z,7.51
2019-04-04T07:28:45.868Z,7.49
2019-04-04T07:29:45.899Z,7.52
2019-04-04T07:30:45.941Z,7.56
2019-04-04T07:31:45.944Z,7.68
2019-04-04T07:32:45.963Z,7.74
2019-04-04T07:33:45.990Z,7.61
2019-04-04T07:34:46.017Z,7.74
2019-04-04T07:35:46.922Z,7.67
2019-04-04T07:36:46.063Z,7.61
2019-04-04T07:37:46.083Z,7.71
2019-04-04T07:38:46.110Z,7.61
2019-04-04T07:39:46.131Z,7.59
2019-04-04T07:40:46.158Z,7.64
2019-04-04T07:41:46.183Z,7.68
2019-04-04T07:42:47.932Z,7.55
2019-04-04T07:43:46.235Z,7.67
2019-04-04T07:44:46.255Z,7.63
2019-04-04T07:45:46.279Z,7.56
2019-04-04T07:46:46.301Z,7.67
2019-04-04T07:47:47.496Z,7.59
2019-04-04T07:48:46.353Z,7.58
2019-04-04T07:49:46.382Z,7.52
2019-04-04T07:50:46.407Z,7.49
2019-04-04T07:51:46.425Z,7.49
2019-04-04T07:52:46.452Z,7.49
2019-04-04T07:53:46.474Z,7.52
2019-04-04T07:54:46.496Z,7.54
2019-04-04T07:55:46.522Z,7.56
2019-04-04T07:56:48.774Z,7.58
2019-04-04T07:57:46.569Z,7.58
2019-04-04T07:58:46.595Z,7.58
2019-04-04T07:59:46.619Z,7.51
2019-04-04T08:00:46.643Z,7.48
2019-04-04T08:01:51.327Z,7.58
2019-04-04T08:02:46.698Z,7.56
2019-04-04T08:03:46.712Z,7.51
2019-04-04T08:04:46.738Z,7.52
2019-04-04T08:05:46.767Z,7.71
2019-04-04T08:06:46.787Z,7.56
2019-04-04T08:07:46.810Z,7.61
2019-04-04T08:08:46.834Z,7.68
2019-04-04T08:09:46.864Z,7.49
2019-04-04T08:10:46.892Z,7.55
2019-04-04T08:11:46.907Z,7.70
2019-04-04T08:12:46.934Z,7.70
2019-04-04T08:13:46.958Z,7.67
2019-04-04T08:14:46.983Z,7.67
2019-04-04T08:15:47.006Z,7.77
2019-04-04T08:16:47.034Z,7.88
2019-04-04T08:17:47.058Z,7.91
2019-04-04T08:18:47.081Z,7.88
2019-04-04T08:19:58.900Z,7.88
2019-04-04T08:20:47.127Z,7.86
2019-04-04T08:21:47.151Z,7.78
2019-04-04T08:22:47.178Z,7.75
2019-04-04T08:23:47.205Z,7.98
2019-04-04T08:24:47.226Z,8.07
2019-04-04T08:25:47.255Z,8.14
2019-04-04T08:26:47.276Z,8.13
2019-04-04T08:27:47.299Z,8.17
2019-04-04T08:28:47.327Z,8.01
2019-04-04T08:29:47.346Z,8.03
2019-04-04T08:30:47.377Z,7.78
2019-04-04T08:31:47.394Z,7.82
2019-04-04T08:32:47.427Z,7.92
2019-04-04T08:33:47.443Z,7.80
2019-04-04T08:34:47.471Z,7.86
2019-04-04T08:35:47.495Z,7.91
2019-04-04T08:36:47.516Z,7.82
2019-04-04T08:37:47.547Z,7.75
2019-04-04T08:38:47.568Z,7.83
2019-04-04T08:39:47.591Z,7.78
2019-04-04T08:40:47.616Z,7.98
2019-04-04T08:41:47.640Z,8.16
2019-04-04T08:42:47.664Z,8.21
2019-04-04T08:43:47.686Z,8.16
2019-04-04T08:44:47.714Z,8.01
2019-04-04T08:45:47.738Z,7.98
2019-04-04T08:46:47.763Z,7.98
2019-04-04T08:47:47.787Z,7.93
2019-04-04T08:48:47.818Z,7.92
2019-04-04T08:49:47.835Z,7.98
2019-04-04T08:50:47.865Z,7.99
2019-04-04T08:51:47.885Z,7.95
2019-04-04T08:52:47.910Z,7.99
2019-04-04T08:53:47.940Z,8.03
2019-04-04T08:54:47.959Z,7.95
2019-04-04T08:55:47.981Z,7.88
2019-04-04T08:56:48.007Z,7.91
2019-04-04T08:57:48.032Z,7.82
2019-04-04T08:58:48.058Z,7.78
2019-04-04T08:59:48.079Z,7.70
2019-04-04T09:00:48.106Z,7.77
2019-04-04T09:01:48.131Z,7.74
2019-04-04T09:02:48.153Z,7.80
2019-04-04T09:03:48.177Z,7.78
2019-04-04T09:04:48.252Z,7.86
2019-04-04T09:05:48.228Z,7.77
2019-04-04T09:06:48.253Z,7.89
2019-04-04T09:07:48.282Z,7.92
2019-04-04T09:08:48.300Z,7.93
2019-04-04T09:09:48.357Z,7.96
2019-04-04T09:10:48.351Z,8.11
2019-04-04T09:11:48.375Z,8.26
2019-04-04T09:12:48.396Z,8.26
2019-04-04T09:13:48.431Z,8.42
2019-04-04T09:14:48.455Z,8.34
2019-04-04T09:15:48.473Z,8.42
2019-04-04T09:16:48.498Z,8.43
2019-04-04T09:17:48.521Z,8.49
2019-04-04T09:18:48.546Z,8.40
2019-04-04T09:19:48.572Z,8.35
2019-04-04T09:20:48.603Z,8.28
2019-04-04T09:21:48.620Z,8.14
2019-04-04T09:22:48.646Z,8.13
2019-04-04T09:23:48.671Z,8.14
2019-04-04T09:24:48.695Z,8.21
2019-04-04T09:25:48.721Z,8.16
2019-04-04T09:26:48.762Z,8.22
2019-04-04T09:27:48.769Z,8.22
2019-04-04T09:28:48.794Z,8.25
2019-04-04T09:29:48.826Z,8.29
2019-04-04T09:30:48.844Z,8.25
2019-04-04T09:31:48.866Z,8.24
2019-04-04T09:32:48.899Z,8.25
2019-04-04T09:33:48.918Z,8.25
2019-04-04T09:34:48.943Z,8.19
2019-04-04T09:35:48.967Z,8.21
2019-04-04T09:36:48.995Z,8.21
2019-04-04T09:37:49.024Z,8.34
2019-04-04T09:38:49.042Z,8.32
2019-04-04T09:39:49.064Z,8.28
2019-04-04T09:40:49.095Z,8.39
2019-04-04T09:41:49.116Z,8.54
2019-04-04T09:42:49.138Z,8.64
2019-04-04T09:43:49.164Z,8.67
2019-04-04T09:44:49.189Z,8.69
2019-04-04T09:45:49.212Z,8.65
2019-04-04T09:46:49.243Z,8.87
2019-04-04T09:47:49.265Z,8.65
2019-04-04T09:48:49.291Z,8.82
2019-04-04T09:49:49.315Z,8.85
2019-04-04T09:50:49.338Z,8.65
2019-04-04T09:51:49.365Z,8.65
2019-04-04T09:52:49.390Z,8.67
2019-04-04T09:53:53.223Z,8.58
2019-04-04T09:54:49.441Z,8.60
2019-04-04T09:55:49.484Z,8.67
2019-04-04T09:56:49.496Z,8.64
2019-04-04T09:57:49.516Z,8.65
2019-04-04T09:58:49.543Z,8.53
2019-04-04T09:59:49.563Z,8.67
2019-04-04T10:00:49.592Z,8.68
2019-04-04T10:01:49.614Z,8.65
2019-04-04T10:02:49.641Z,8.71
2019-04-04T10:03:49.670Z,8.65
2019-04-04T10:04:49.691Z,8.80
2019-04-04T10:05:49.716Z,8.76
2019-04-04T10:06:49.739Z,8.77
2019-04-04T10:07:49.765Z,8.71
2019-04-04T10:08:49.791Z,8.72
2019-04-04T10:09:49.815Z,8.79
2019-04-04T10:10:49.840Z,8.79
2019-04-04T10:11:49.873Z,8.97
2019-04-04T10:12:49.893Z,8.94
2019-04-04T10:13:49.917Z,8.94
2019-04-04T10:14:49.941Z,8.80
2019-04-04T10:15:49.968Z,8.87
2019-04-04T10:16:49.993Z,8.86
2019-04-04T10:17:50.018Z,8.90
2019-04-04T10:18:50.053Z,8.95
2019-04-04T10:19:50.067Z,8.95
2019-04-04T10:20:50.097Z,8.79
2019-04-04T10:21:50.118Z,8.74
2019-04-04T10:22:50.148Z,8.65
2019-04-04T10:23:50.170Z,8.71
2019-04-04T10:24:50.213Z,8.67
2019-04-04T10:25:50.220Z,8.60
2019-04-04T10:26:50.243Z,8.62
2019-04-04T10:27:50.270Z,8.79
2019-04-04T10:28:50.296Z,8.74
2019-04-04T10:29:50.319Z,8.71
2019-04-04T10:30:50.346Z,8.65
2019-04-04T10:31:50.371Z,8.61
2019-04-04T10:32:50.395Z,8.64
2019-04-04T10:33:50.423Z,8.65
2019-04-04T10:34:50.450Z,8.76
2019-04-04T10:35:50.483Z,8.72
2019-04-04T10:36:50.499Z,8.64
2019-04-04T10:37:50.523Z,8.62
2019-04-04T10:38:50.546Z,8.67
2019-04-04T10:39:50.573Z,8.77
2019-04-04T10:40:50.605Z,8.80
2019-04-04T10:41:50.630Z,8.74
2019-04-04T10:42:50.655Z,8.69
2019-04-04T10:43:50.674Z,8.68
2019-04-04T10:44:50.697Z,8.65
2019-04-04T10:45:50.732Z,8.72
2019-04-04T10:46:50.747Z,8.67
2019-04-04T10:47:50.772Z,8.44
2019-04-04T10:48:50.800Z,8.53
2019-04-04T10:49:50.832Z,8.53
2019-04-04T10:50:50.856Z,8.43
2019-04-04T10:51:50.872Z,8.43
2019-04-04T10:52:50.907Z,8.46
2019-04-04T10:53:50.923Z,8.50
2019-04-04T10:54:50.954Z,8.39
2019-04-04T10:55:50.972Z,8.50
2019-04-04T10:56:51.006Z,8.53
2019-04-04T10:57:51.025Z,8.49
2019-04-04T10:58:51.048Z,8.61
2019-04-04T10:59:54.629Z,8.60
2019-04-04T11:00:51.097Z,8.67
2019-04-04T11:01:51.135Z,8.72
2019-04-04T11:02:51.152Z,8.61
2019-04-04T11:03:51.174Z,8.68
2019-04-04T11:04:51.197Z,8.62
2019-04-04T11:05:51.226Z,8.69
2019-04-04T11:06:51.251Z,8.86
2019-04-04T11:07:51.278Z,8.87
2019-04-04T11:08:51.300Z,8.82
2019-04-04T11:09:51.325Z,8.80
2019-04-04T11:10:51.356Z,8.79
2019-04-04T11:11:51.440Z,8.77
2019-04-04T11:12:51.403Z,8.80
2019-04-04T11:13:51.427Z,8.85
2019-04-04T11:14:51.450Z,8.87
2019-04-04T11:15:51.472Z,8.87
2019-04-04T11:16:51.497Z,8.98
2019-04-04T11:17:51.528Z,8.92
2019-04-04T11:18:51.548Z,8.80
2019-04-04T11:19:51.585Z,8.87
2019-04-04T11:20:51.601Z,8.95
2019-04-04T11:21:51.624Z,9.08
2019-04-04T11:22:51.652Z,9.19
2019-04-04T11:23:51.675Z,9.19
2019-04-04T11:24:51.707Z,9.17
2019-04-04T11:25:51.732Z,9.19
2019-04-04T11:26:51.752Z,9.12
2019-04-04T11:27:51.778Z,9.05
2019-04-04T11:28:51.802Z,8.98
2019-04-04T11:29:51.827Z,8.86
2019-04-04T11:30:51.859Z,8.92
2019-04-04T11:31:51.877Z,8.94
2019-04-04T11:32:51.904Z,9.00
2019-04-04T11:33:51.929Z,8.95
2019-04-04T11:34:53.369Z,8.92
2019-04-04T11:35:51.976Z,8.86
2019-04-04T11:36:52.011Z,8.95
2019-04-04T11:37:52.030Z,8.95
2019-04-04T11:38:52.057Z,8.95
2019-04-04T11:39:54.854Z,9.01
2019-04-04T11:40:52.106Z,9.08
2019-04-04T11:41:52.127Z,9.03
2019-04-04T11:42:52.161Z,9.27
2019-04-04T11:43:52.181Z,9.17
2019-04-04T11:44:52.221Z,9.14
2019-04-04T11:45:52.230Z,9.11
2019-04-04T11:46:52.255Z,9.19
2019-04-04T11:47:52.283Z,9.08
2019-04-04T11:48:52.308Z,9.01
2019-04-04T11:49:52.334Z,8.97
2019-04-04T11:50:52.363Z,9.01
2019-04-04T11:51:52.384Z,9.00
2019-04-04T11:52:52.408Z,8.95
2019-04-04T11:53:52.434Z,8.92
2019-04-04T11:54:52.460Z,8.92
2019-04-04T11:55:52.487Z,8.97
2019-04-04T11:56:52.512Z,8.76
2019-04-04T11:57:52.534Z,8.60
2019-04-04T11:58:52.561Z,8.67
2019-04-04T11:59:52.587Z,8.69
2019-04-04T12:00:52.612Z,8.61
2019-04-04T12:01:52.638Z,8.68
2019-04-04T12:02:52.662Z,8.67
2019-04-04T12:03:52.689Z,8.64
2019-04-04T12:04:52.720Z,8.61
2019-04-04T12:05:52.736Z,8.64
2019-04-04T12:06:52.761Z,8.65
2019-04-04T12:07:52.794Z,8.69
2019-04-04T12:08:52.813Z,8.67
2019-04-04T12:09:52.842Z,8.79
2019-04-04T12:10:52.867Z,8.77
2019-04-04T12:11:52.888Z,8.77
2019-04-04T12:12:52.913Z,8.79
2019-04-04T12:13:52.939Z,8.80
2019-04-04T12:14:52.963Z,8.83
2019-04-04T12:15:52.990Z,8.65
2019-04-04T12:16:53.012Z,8.60
2019-04-04T12:17:53.039Z,8.68
2019-04-04T12:18:53.079Z,8.72
2019-04-04T12:19:53.090Z,8.65
2019-04-04T12:20:53.113Z,8.62
2019-04-04T12:21:53.146Z,8.64
2019-04-04T12:22:53.166Z,8.82
2019-04-04T12:23:53.195Z,8.80
2019-04-04T12:24:53.213Z,8.85
2019-04-04T12:25:53.239Z,8.76
2019-04-04T12:26:53.266Z,8.82
2019-04-04T12:27:53.290Z,8.76
2019-04-04T12:28:53.316Z,8.77
2019-04-04T12:29:53.342Z,8.79
2019-04-04T12:30:53.365Z,8.76
2019-04-04T12:31:53.388Z,8.74
2019-04-04T12:32:53.419Z,8.80
2019-04-04T12:33:53.439Z,8.94
2019-04-04T12:34:53.465Z,8.76
2019-04-04T12:35:53.536Z,8.82
2019-04-04T12:36:53.516Z,8.76
2019-04-04T12:37:53.542Z,8.76
2019-04-04T12:38:53.568Z,8.65
2019-04-04T12:39:53.591Z,8.67
2019-04-04T12:40:53.617Z,8.64
2019-04-04T12:41:53.647Z,8.54
2019-04-04T12:42:53.674Z,8.67
2019-04-04T12:43:53.689Z,8.67
2019-04-04T12:44:53.721Z,8.58
2019-04-04T12:45:53.740Z,8.64
2019-04-04T12:46:53.768Z,8.64
2019-04-04T12:47:53.792Z,8.65
2019-04-04T12:48:53.817Z,8.62
2019-04-04T12:49:53.840Z,8.65
2019-04-04T12:50:53.868Z,8.71
2019-04-04T12:51:53.892Z,8.65
2019-04-04T12:52:53.924Z,8.72
2019-04-04T12:53:53.944Z,8.72
2019-04-04T12:54:53.965Z,8.74
2019-04-04T12:55:54.408Z,8.65
2019-04-04T12:56:54.017Z,8.64
2019-04-04T12:57:54.043Z,8.60
2019-04-04T12:58:54.068Z,8.53
2019-04-04T12:59:54.090Z,8.50
2019-04-04T13:00:54.116Z,8.49
2019-04-04T13:01:54.142Z,8.43
2019-04-04T13:02:54.168Z,8.43
2019-04-04T13:03:54.190Z,8.49
2019-04-04T13:04:54.215Z,8.62
2019-04-04T13:05:54.240Z,8.60
2019-04-04T13:06:54.270Z,8.58
2019-04-04T13:07:54.301Z,8.65
2019-04-04T13:08:54.320Z,8.61
2019-04-04T13:09:54.340Z,8.64
2019-04-04T13:10:54.374Z,8.68
2019-04-04T13:11:54.392Z,8.64
2019-04-04T13:12:54.421Z,8.46
2019-04-04T13:13:54.443Z,8.34
2019-04-04T13:14:54.465Z,8.42
2019-04-04T13:15:54.493Z,8.42
2019-04-04T13:16:54.517Z,8.43
2019-04-04T13:17:54.546Z,8.44
2019-04-04T13:18:54.566Z,8.43
2019-04-04T13:19:54.589Z,8.46
2019-04-04T13:20:54.617Z,8.31